Pierrepont, New York
Current Conditions -  °F | °C
As of 1:53 PM on Thursday 30 Oct 2014 (Local Time) from KMSS Reporting Station
Overcast Overcast  
Wind Chill:   Ceiling: 4000
Heat Index:   Visibility: 10mi
Dew Point:   Wind: 7mph
Humidity: 60%   Direction: 280°W
Pressure: 30"   Gusts: NA
Location:  44.5792°N, 75.1592°W
Report Text: KMSS 301753Z AUTO 28006KT 10SM SCT032 OVC040 07/00 A3000 RMK AO2 SLP163 T00720000 10078 20033 58006
Loading
Personal Weather Stations






























Interactive Weather Map
Tropical Storm Tracking
New forecast layout! Learn more

10-Day Weather Forecast

Advertisements
Track Severe Weather on mobile